首页
METAR-TAF:

METAR-TAF

机场 :

Michael J. Smith Field

Beaufort, 北卡罗来纳州, 美国

纬度: 34-44-01N, 经度: 076-39-38W, 海拔: 3米

当前天气观测

该预报发布于1小时和11分钟前的17:58 UTC
风速5节,风向西北
温度 20°C
湿度 68%
气压 1021 hPa
能見度: 16.1公里
天空无云

METAR: KMRH 181758Z AUTO 32005KT 10SM CLR 20/14 A3016 RMK AO2 SLP212 T02000144 10206 20089 58023

时间: 14:09 (19:09 UTC)


TAF: 丢失

超过4000个机场的气象观测和天气预报(METAR&TAF报告)。

可查询的气象台以黄色和红色小点在地图上表示。

将鼠标移到小点上方,可查看气象台名称。

然后点击查看天气观测和预报。

如需切换地图:点击带黑十字的绿色按钮放大地图;点击带横线的绿色按钮缩小地图;或者点击绿色箭头查看邻近地区的地图。


METAR-TAF: